| time (UTC) | temp F | wind direction | speed MPH | gust MPH | rain 1hr in | rain 24hr in | rain mn in | humidity % | barometer mb |
| 20260903064137 | 46 | 10 | 4.0 | 7.0 | 0.00 | 0.41 | 0.00 | 72 | 718.2 |
| 20260903063524 | 45 | 3 | 4.0 | 6.0 | 0.00 | 0.41 | 0.00 | 73 | 718.1 |
| 20260903062525 | 45 | 360 | 3.0 | 5.0 | 0.00 | 0.41 | 0.00 | 74 | 718.1 |
| 20260903061138 | 45 | 9 | 5.0 | 9.0 | 0.00 | 0.41 | 0.00 | 73 | 718.1 |
| 20260903060525 | 45 | 15 | 5.0 | 8.0 | 0.00 | 0.41 | 0.00 | 73 | 718.0 |
| 20260903055524 | 45 | 4 | 4.0 | 7.0 | 0.00 | 0.41 | 0.00 | 73 | 718.0 |
| 20260903054137 | 46 | 360 | 4.0 | 6.0 | 0.00 | 0.41 | 0.00 | 72 | 717.9 |
| 20260903053525 | 45 | 344 | 3.0 | 5.0 | 0.00 | 0.41 | 0.00 | 73 | 717.9 |
| 20260903052525 | 45 | 6 | 5.0 | 6.0 | 0.00 | 0.41 | 0.00 | 73 | 717.9 |
| 20260903051138 | 45 | 7 | 5.0 | 9.0 | 0.00 | 0.41 | 0.00 | 73 | 717.9 |
| 20260903050524 | 46 | 1 | 4.0 | 7.0 | 0.00 | 0.41 | 0.00 | 73 | 717.8 |
| 20260903045525 | 46 | 38 | 5.0 | 8.0 | 0.00 | 0.41 | 0.00 | 72 | 717.8 |
| 20260903044137 | 46 | 36 | 4.0 | 12.0 | 0.00 | 0.41 | 0.00 | 70 | 717.8 |
| 20260903043524 | 46 | 40 | 4.0 | 10.0 | 0.00 | 0.41 | 0.00 | 71 | 717.8 |
| 20260903042525 | 45 | 24 | 4.0 | 7.0 | 0.00 | 0.41 | 0.00 | 74 | 717.8 |
| 20260903041137 | 46 | 7 | 4.0 | 7.0 | 0.00 | 0.41 | 0.00 | 73 | 717.9 |
| 20260903040525 | 46 | 17 | 4.0 | 8.0 | 0.00 | 0.41 | 0.00 | 72 | 717.9 |
| 20260903035525 | 45 | 36 | 3.0 | 8.0 | 0.00 | 0.41 | 0.00 | 75 | 717.8 |
| 20260903034524 | 45 | 58 | 4.0 | 6.0 | 0.00 | 0.41 | 0.00 | 75 | 717.8 |
| 20260903033525 | 46 | 40 | 5.0 | 7.0 | 0.00 | 0.41 | 0.00 | 74 | 717.9 |
| 20260903032525 | 45 | 22 | 5.0 | 7.0 | 0.00 | 0.41 | 0.00 | 76 | 717.8 |
| 20260903031138 | 45 | 8 | 4.0 | 6.0 | 0.00 | 0.41 | 0.00 | 78 | 717.8 |
| 20260903030525 | 45 | 24 | 4.0 | 6.0 | 0.00 | 0.41 | 0.00 | 78 | 717.7 |
| 20260903025525 | 45 | 51 | 2.0 | 5.0 | 0.00 | 0.41 | 0.00 | 78 | 717.7 |
| 20260903024525 | 45 | 47 | 1.0 | 2.0 | 0.00 | 0.41 | 0.00 | 80 | 717.7 |
| 20260903023525 | 45 | 103 | 1.0 | 3.0 | 0.00 | 0.41 | 0.00 | 82 | 717.8 |
| 20260903022525 | 45 | 198 | 2.0 | 3.0 | 0.00 | 0.41 | 0.00 | 83 | 717.8 |
| 20260903021137 | 44 | 206 | 2.0 | 3.0 | 0.00 | 0.41 | 0.00 | 83 | 717.7 |
| 20260903020525 | 45 | 212 | 2.0 | 3.0 | 0.00 | 0.41 | 0.00 | 82 | 717.8 |
| 20260903015525 | 45 | 152 | 2.0 | 3.0 | 0.00 | 0.41 | 0.00 | 83 | 717.8 |
| 20260903014137 | 45 | 225 | 1.0 | 2.0 | 0.00 | 0.41 | 0.00 | 83 | 717.9 |
| 20260903013524 | 45 | 345 | 3.0 | 5.0 | 0.00 | 0.41 | 0.00 | 83 | 717.9 |
| 20260903012524 | 45 | 2 | 4.0 | 6.0 | 0.00 | 0.41 | 0.00 | 83 | 718.0 |
| 20260903011138 | 45 | 12 | 4.0 | 7.0 | 0.00 | 0.41 | 0.00 | 84 | 718.0 |
| 20260903010525 | 45 | 359 | 3.0 | 5.0 | 0.00 | 0.41 | 0.00 | 84 | 718.0 |
| 20260903005525 | 45 | 41 | 2.0 | 5.0 | 0.00 | 0.41 | 0.00 | 89 | 718.0 |
| 20260903004138 | 45 | 100 | 2.0 | 5.0 | 0.00 | 0.41 | 0.00 | 90 | 718.0 |
| 20260903003525 | 45 | 328 | 0.0 | 4.0 | 0.00 | 0.41 | 0.00 | 89 | 718.0 |
| 20260903002525 | 45 | 12 | 3.0 | 6.0 | 0.00 | 0.41 | 0.00 | 90 | 718.0 |
| 20260903001537 | 45 | 360 | 5.0 | 6.0 | 0.00 | 0.41 | 0.00 | 91 | 718.0 |
| 20260903000525 | 45 | 4 | 5.0 | 7.0 | 0.00 | 0.41 | 0.00 | 91 | 718.0 |
| 20260902235524 | 45 | 351 | 4.0 | 8.0 | 0.00 | 0.41 | 0.00 | 91 | 718.0 |
| 20260902234138 | 45 | 344 | 4.0 | 6.0 | 0.00 | 0.41 | 0.00 | 91 | 718.2 |
| 20260902233524 | 46 | 350 | 4.0 | 7.0 | 0.00 | 0.41 | 0.00 | 91 | 718.2 |
| 20260902232524 | 46 | 354 | 4.0 | 7.0 | 0.00 | 0.41 | 0.00 | 88 | 718.2 |
| 20260902231525 | 46 | 357 | 5.0 | 6.0 | 0.00 | 0.41 | 0.00 | 88 | 718.2 |
| 20260902230525 | 46 | 338 | 5.0 | 6.0 | 0.00 | 0.41 | 0.00 | 87 | 718.3 |
| 20260902225525 | 46 | 330 | 3.0 | 5.0 | 0.00 | 0.41 | 0.00 | 87 | 718.2 |
| 20260902224138 | 46 | 336 | 3.0 | 4.0 | 0.00 | 0.41 | 0.00 | 88 | 718.3 |
| 20260902223525 | 46 | 350 | 3.0 | 5.0 | 0.00 | 0.41 | 0.00 | 88 | 718.3 |
| 20260902222525 | 46 | 348 | 2.0 | 4.0 | 0.00 | 0.41 | 0.00 | 88 | 718.2 |
| 20260902221138 | 46 | 301 | 2.0 | 5.0 | 0.00 | 0.41 | 0.00 | 87 | 718.3 |
| 20260902220524 | 46 | 220 | 3.0 | 5.0 | 0.00 | 0.41 | 0.41 | 84 | 718.3 |
| 20260902215525 | 46 | 186 | 1.0 | 4.0 | 0.04 | 0.41 | 0.41 | 87 | 718.2 |
| 20260902214138 | 46 | 6 | 3.0 | 8.0 | 0.08 | 0.41 | 0.41 | 88 | 718.1 |
| 20260902213524 | 46 | 272 | 1.0 | 3.0 | 0.22 | 0.41 | 0.41 | 87 | 718.1 |
| 20260902211138 | 46 | 52 | 1.0 | 7.0 | 0.30 | 0.41 | 0.41 | 84 | 718.1 |
| 20260902210525 | 46 | 118 | 2.0 | 6.0 | 0.30 | 0.41 | 0.41 | 81 | 718.0 |
| 20260902205525 | 45 | 144 | 6.0 | 9.0 | 0.30 | 0.41 | 0.41 | 88 | 718.0 |
| 20260902204139 | 46 | 276 | 3.0 | 12.0 | 0.26 | 0.37 | 0.37 | 82 | 718.1 |
| 20260902203524 | 46 | 318 | 4.0 | 8.0 | 0.23 | 0.33 | 0.33 | 90 | 718.0 |
| 20260902202525 | 46 | 332 | 5.0 | 7.0 | 0.16 | 0.20 | 0.20 | 91 | 718.2 |
| 20260902201138 | 47 | 357 | 5.0 | 7.0 | 0.13 | 0.13 | 0.13 | 90 | 718.1 |
| 20260902200525 | 47 | 7 | 4.0 | 7.0 | 0.11 | 0.11 | 0.11 | 90 | 718.2 |
| 20260902195525 | 46 | 349 | 5.0 | 7.0 | 0.11 | 0.11 | 0.11 | 90 | 718.2 |
| 20260902194138 | 47 | 339 | 7.0 | 8.0 | 0.11 | 0.11 | 0.11 | 91 | 718.3 |
| 20260902193525 | 46 | 340 | 9.0 | 12.0 | 0.11 | 0.11 | 0.11 | 92 | 718.3 |
| 20260902192524 | 47 | 334 | 9.0 | 16.0 | 0.10 | 0.10 | 0.10 | 92 | 718.2 |
| 20260902191138 | 47 | 348 | 11.0 | 19.0 | 0.04 | 0.04 | 0.04 | 90 | 718.3 |
| 20260902190524 | 48 | 349 | 8.0 | 14.0 | 0.00 | 0.00 | 0.00 | 86 | 718.2 |
| 20260902185525 | 49 | 303 | 2.0 | 5.0 | 0.00 | 0.00 | 0.00 | 84 | 718.2 |
| 20260902184138 | 49 | 360 | 3.0 | 7.0 | 0.00 | 0.00 | 0.00 | 85 | 718.2 |
| 20260902183525 | 49 | 336 | 6.0 | 10.0 | 0.00 | 0.00 | 0.00 | 83 | 718.1 |
| 20260902182525 | 49 | 351 | 7.0 | 11.0 | 0.00 | 0.00 | 0.00 | 83 | 717.9 |
| 20260902181138 | 49 | 346 | 7.0 | 10.0 | 0.00 | 0.00 | 0.00 | 81 | 717.9 |
| 20260902180525 | 49 | 335 | 7.0 | 11.0 | 0.00 | 0.00 | 0.00 | 80 | 717.9 |
| 20260902175525 | 50 | 353 | 8.0 | 11.0 | 0.00 | 0.00 | 0.00 | 78 | 718.0 |
| 20260902174138 | 50 | 352 | 8.0 | 12.0 | 0.00 | 0.00 | 0.00 | 77 | 717.8 |
| 20260902173524 | 50 | 352 | 7.0 | 12.0 | 0.00 | 0.00 | 0.00 | 76 | 717.9 |
| 20260902172525 | 50 | 355 | 7.0 | 11.0 | 0.00 | 0.00 | 0.00 | 75 | 717.8 |
| 20260902171138 | 51 | 359 | 6.0 | 9.0 | 0.00 | 0.00 | 0.00 | 74 | 717.8 |
| 20260902170525 | 51 | 9 | 5.0 | 9.0 | 0.00 | 0.00 | 0.00 | 73 | 717.8 |
| 20260902165525 | 51 | 21 | 6.0 | 10.0 | 0.00 | 0.00 | 0.00 | 74 | 717.8 |
| 20260902164138 | 51 | 352 | 6.0 | 9.0 | 0.00 | 0.00 | 0.00 | 73 | 717.9 |
| 20260902163525 | 51 | 347 | 4.0 | 8.0 | 0.00 | 0.00 | 0.00 | 72 | 717.9 |
| 20260902162525 | 51 | 12 | 4.0 | 6.0 | 0.00 | 0.00 | 0.00 | 72 | 718.0 |
| 20260902161138 | 51 | 358 | 5.0 | 9.0 | 0.00 | 0.00 | 0.00 | 71 | 717.9 |
| 20260902160524 | 52 | 351 | 5.0 | 7.0 | 0.00 | 0.00 | 0.00 | 72 | 718.0 |
| 20260902155525 | 52 | 360 | 5.0 | 7.0 | 0.00 | 0.00 | 0.00 | 72 | 718.0 |
| 20260902154138 | 51 | 20 | 4.0 | 7.0 | 0.00 | 0.00 | 0.00 | 72 | 717.9 |
| 20260902153525 | 51 | 1 | 5.0 | 9.0 | 0.00 | 0.00 | 0.00 | 71 | 718.0 |
| 20260902152524 | 52 | 350 | 6.0 | 10.0 | 0.00 | 0.00 | 0.00 | 70 | 718.1 |
| 20260902151138 | 52 | 337 | 9.0 | 12.0 | 0.00 | 0.00 | 0.00 | 69 | 718.3 |
| 20260902150525 | 53 | 344 | 9.0 | 12.0 | 0.00 | 0.00 | 0.00 | 64 | 718.4 |
| 20260902145525 | 54 | 346 | 8.0 | 12.0 | 0.00 | 0.00 | 0.00 | 62 | 718.5 |
| 20260902144138 | 55 | 349 | 6.0 | 9.0 | 0.00 | 0.00 | 0.00 | 64 | 718.6 |
| 20260902143524 | 53 | 332 | 6.0 | 10.0 | 0.00 | 0.00 | 0.00 | 61 | 718.4 |
| 20260902142525 | 55 | 346 | 6.0 | 10.0 | 0.00 | 0.00 | 0.00 | 61 | 718.7 |
| 20260902141138 | 55 | 357 | 6.0 | 10.0 | 0.00 | 0.00 | 0.00 | 59 | 718.6 |
| 20260902140525 | 55 | 345 | 6.0 | 8.0 | 0.00 | 0.00 | 0.00 | 58 | 718.7 |
| 20260902135525 | 55 | 346 | 6.0 | 10.0 | 0.00 | 0.00 | 0.00 | 57 | 718.7 |
| 20260902134137 | 55 | 342 | 4.0 | 7.0 | 0.00 | 0.00 | 0.00 | 58 | 718.7 |
| 20260902133525 | 55 | 346 | 4.0 | 6.0 | 0.00 | 0.00 | 0.00 | 58 | 718.6 |
| 20260902132525 | 54 | 343 | 5.0 | 9.0 | 0.00 | 0.00 | 0.00 | 59 | 718.5 |
| 20260902131138 | 53 | 345 | 6.0 | 10.0 | 0.00 | 0.00 | 0.00 | 59 | 718.4 |
| 20260902130525 | 53 | 348 | 8.0 | 10.0 | 0.00 | 0.00 | 0.00 | 68 | 718.6 |
| 20260902125525 | 54 | 345 | 6.0 | 9.0 | 0.00 | 0.00 | 0.00 | 63 | 718.7 |
| 20260902124137 | 53 | 340 | 7.0 | 10.0 | 0.00 | 0.00 | 0.00 | 62 | 718.4 |
| 20260902123525 | 53 | 348 | 7.0 | 11.0 | 0.00 | 0.00 | 0.00 | 66 | 718.6 |
| 20260902122525 | 53 | 342 | 8.0 | 11.0 | 0.00 | 0.00 | 0.00 | 65 | 718.6 |
| 20260902121138 | 53 | 345 | 6.0 | 9.0 | 0.00 | 0.00 | 0.00 | 63 | 718.6 |
| 20260902120524 | 54 | 350 | 6.0 | 9.0 | 0.00 | 0.00 | 0.00 | 59 | 718.6 |
| 20260902115524 | 55 | 328 | 3.0 | 7.0 | 0.00 | 0.00 | 0.00 | 58 | 718.9 |
| 20260902114138 | 55 | 326 | 3.0 | 7.0 | 0.00 | 0.00 | 0.00 | 62 | 718.8 |
| 20260902113525 | 54 | 344 | 4.0 | 7.0 | 0.00 | 0.00 | 0.00 | 62 | 718.6 |
| 20260902112525 | 53 | 2 | 3.0 | 6.0 | 0.00 | 0.00 | 0.00 | 65 | 718.6 |
| 20260902111138 | 53 | 351 | 3.0 | 6.0 | 0.00 | 0.00 | 0.00 | 65 | 718.8 |
| 20260902110525 | 53 | 346 | 4.0 | 8.0 | 0.00 | 0.00 | 0.00 | 66 | 718.8 |
| 20260902105524 | 53 | 352 | 3.0 | 6.0 | 0.00 | 0.00 | 0.00 | 62 | 718.8 |
| 20260902104138 | 53 | 352 | 5.0 | 8.0 | 0.00 | 0.00 | 0.00 | 70 | 719.0 |
| 20260902103525 | 53 | 357 | 5.0 | 9.0 | 0.00 | 0.00 | 0.00 | 70 | 718.9 |
| 20260902102524 | 53 | 353 | 5.0 | 8.0 | 0.00 | 0.00 | 0.00 | 69 | 719.0 |
| 20260902101138 | 53 | 348 | 4.0 | 6.0 | 0.00 | 0.00 | 0.00 | 68 | 719.0 |
| 20260902100525 | 54 | 353 | 2.0 | 8.0 | 0.00 | 0.00 | 0.00 | 67 | 719.2 |
| 20260902095525 | 53 | 333 | 1.0 | 4.0 | 0.00 | 0.00 | 0.00 | 67 | 719.0 |
| 20260902094138 | 53 | 12 | 3.0 | 6.0 | 0.00 | 0.00 | 0.00 | 65 | 718.9 |
| 20260902093525 | 51 | 342 | 5.0 | 7.0 | 0.00 | 0.00 | 0.00 | 74 | 718.6 |
| 20260902092524 | 52 | 342 | 4.0 | 6.0 | 0.00 | 0.00 | 0.00 | 69 | 718.8 |
| 20260902091137 | 51 | 255 | 2.0 | 10.0 | 0.00 | 0.00 | 0.00 | 66 | 718.6 |
| 20260902090525 | 53 | 171 | 5.0 | 9.0 | 0.00 | 0.00 | 0.00 | 52 | 718.6 |
| 20260902084137 | 52 | 182 | 9.0 | 16.0 | 0.00 | 0.00 | 0.00 | 60 | 718.3 |
| 20260902083525 | 51 | 186 | 11.0 | 17.0 | 0.00 | 0.00 | 0.00 | 62 | 718.1 |
| 20260902082525 | 51 | 180 | 10.0 | 15.0 | 0.00 | 0.00 | 0.00 | 63 | 718.0 |
| 20260902081137 | 51 | 200 | 7.0 | 11.0 | 0.00 | 0.00 | 0.00 | 63 | 718.0 |
| 20260902080524 | 51 | 169 | 5.0 | 10.0 | 0.00 | 0.00 | 0.00 | 63 | 718.1 |
| 20260902075525 | 51 | 181 | 1.0 | 5.0 | 0.00 | 0.00 | 0.00 | 65 | 718.0 |
| 20260902074138 | 50 | 89 | 2.0 | 7.0 | 0.00 | 0.00 | 0.00 | 65 | 717.7 |
| 20260902073524 | 49 | 312 | 2.0 | 6.0 | 0.00 | 0.00 | 0.00 | 68 | 717.7 |
| 20260902072525 | 49 | 187 | 4.0 | 10.0 | 0.00 | 0.00 | 0.00 | 67 | 717.5 |
| 20260902071338 | 49 | 172 | 7.0 | 12.0 | 0.00 | 0.00 | 0.00 | 64 | 717.4 |
| 20260902070524 | 48 | 167 | 8.0 | 13.0 | 0.00 | 0.00 | 0.00 | 65 | 717.3 |
| 20260902065524 | 48 | 156 | 4.0 | 13.0 | 0.00 | 0.00 | 0.00 | 64 | 717.2 |